createdAt,value
2019-01-20T00:00:05.492Z,22.48
2019-01-20T00:02:34.112Z,21.85
2019-01-20T00:05:02.581Z,21.55
2019-01-20T00:07:31.048Z,23.45
2019-01-20T00:09:59.501Z,23.57
2019-01-20T00:12:27.980Z,23.40
2019-01-20T00:14:56.419Z,23.92
2019-01-20T00:17:24.908Z,24.67
2019-01-20T00:19:53.356Z,22.93
2019-01-20T00:22:21.820Z,23.50
2019-01-20T00:24:50.275Z,22.42
2019-01-20T00:27:18.859Z,22.27
2019-01-20T00:29:47.300Z,22.60
2019-01-20T00:32:15.778Z,21.27
2019-01-20T00:34:44.276Z,22.52
2019-01-20T00:37:12.759Z,23.02
2019-01-20T00:39:41.230Z,22.62
2019-01-20T00:42:09.701Z,20.25
2019-01-20T00:44:38.184Z,21.02
2019-01-20T00:47:06.760Z,22.10
2019-01-20T00:49:35.210Z,20.97
2019-01-20T00:52:03.761Z,21.33
2019-01-20T00:54:32.210Z,23.05
2019-01-20T00:57:00.789Z,24.20
2019-01-20T00:59:29.254Z,25.05
2019-01-20T01:01:57.798Z,25.23
2019-01-20T01:04:26.306Z,25.52
2019-01-20T01:06:54.764Z,25.80
2019-01-20T01:09:23.248Z,24.23
2019-01-20T01:11:51.727Z,24.35
2019-01-20T01:14:20.198Z,24.05
2019-01-20T01:16:48.650Z,24.70
2019-01-20T01:19:17.162Z,25.25
2019-01-20T01:21:45.558Z,24.40
2019-01-20T01:24:14.032Z,25.68
2019-01-20T01:26:42.489Z,26.02
2019-01-20T01:29:10.948Z,25.43
2019-01-20T01:31:39.407Z,24.15
2019-01-20T01:34:07.849Z,29.92
2019-01-20T01:36:36.291Z,28.38
2019-01-20T01:39:07.169Z,25.30
2019-01-20T01:41:39.126Z,24.75
2019-01-20T01:44:05.880Z,27.22
2019-01-20T01:46:34.329Z,25.95
2019-01-20T01:49:02.812Z,27.93
2019-01-20T01:51:31.263Z,28.07
2019-01-20T01:53:59.739Z,28.83
2019-01-20T01:56:28.223Z,27.52
2019-01-20T01:58:56.699Z,30.23
2019-01-20T02:01:25.161Z,26.25
2019-01-20T02:03:53.665Z,28.42
2019-01-20T02:06:22.121Z,29.10
2019-01-20T02:08:50.585Z,26.62
2019-01-20T02:11:19.017Z,26.05
2019-01-20T02:13:47.499Z,28.05
2019-01-20T02:16:15.954Z,25.15
2019-01-20T02:18:44.429Z,26.82
2019-01-20T02:21:12.869Z,27.90
2019-01-20T02:23:41.453Z,26.87
2019-01-20T02:26:09.902Z,26.70
2019-01-20T02:28:38.378Z,24.87
2019-01-20T02:31:06.850Z,25.45
2019-01-20T02:33:35.301Z,27.77
2019-01-20T02:36:03.999Z,25.72
2019-01-20T02:38:32.446Z,23.83
2019-01-20T02:41:00.917Z,23.83
2019-01-20T02:43:29.374Z,26.23
2019-01-20T02:45:57.837Z,26.05
2019-01-20T02:48:26.362Z,26.62
2019-01-20T02:50:54.838Z,24.85
2019-01-20T02:53:23.288Z,25.17
2019-01-20T02:55:51.752Z,24.30
2019-01-20T02:58:20.209Z,23.27
2019-01-20T03:00:48.726Z,25.65
2019-01-20T03:03:17.179Z,26.05
2019-01-20T03:05:45.661Z,25.85
2019-01-20T03:08:14.153Z,24.35
2019-01-20T03:10:42.619Z,24.02
2019-01-20T03:13:11.078Z,25.30
2019-01-20T03:15:39.541Z,26.00
2019-01-20T03:18:07.979Z,25.60
2019-01-20T03:20:36.461Z,27.60
2019-01-20T03:23:04.922Z,25.90
2019-01-20T03:25:33.393Z,26.73
2019-01-20T03:28:01.841Z,26.20
2019-01-20T03:30:30.316Z,25.23
2019-01-20T03:32:58.767Z,26.62
2019-01-20T03:35:27.227Z,26.62
2019-01-20T03:37:55.705Z,29.95
2019-01-20T03:40:24.154Z,25.68
2019-01-20T03:42:52.659Z,26.40
2019-01-20T03:45:21.583Z,24.85
2019-01-20T03:47:50.083Z,25.43
2019-01-20T03:50:18.910Z,26.12
2019-01-20T03:52:47.755Z,25.40
2019-01-20T03:55:18.055Z,25.65
2019-01-20T03:57:46.764Z,24.15
2019-01-20T04:00:17.351Z,25.57
2019-01-20T04:02:47.658Z,26.00
2019-01-20T04:05:16.105Z,24.63
2019-01-20T04:07:44.578Z,26.37
2019-01-20T04:10:15.184Z,23.67
2019-01-20T04:12:43.668Z,27.52
2019-01-20T04:15:14.361Z,24.67
2019-01-20T04:17:42.862Z,25.57
2019-01-20T04:20:13.960Z,25.35
2019-01-20T04:22:42.428Z,27.02
2019-01-20T04:25:14.186Z,26.30
2019-01-20T04:27:42.664Z,28.15
2019-01-20T04:30:13.548Z,25.90
2019-01-20T04:32:42.020Z,25.10
2019-01-20T04:35:11.913Z,25.25
2019-01-20T04:37:40.438Z,29.02
2019-01-20T04:40:14.796Z,25.17
2019-01-20T04:42:43.277Z,26.07
2019-01-20T04:45:14.075Z,25.27
2019-01-20T04:47:42.767Z,27.02
2019-01-20T04:50:14.048Z,26.10
2019-01-20T04:52:42.554Z,24.47
2019-01-20T04:55:12.952Z,28.35
2019-01-20T04:57:42.762Z,25.12
2019-01-20T05:00:17.005Z,26.12
2019-01-20T05:02:45.477Z,28.42
2019-01-20T05:05:13.915Z,26.42
2019-01-20T05:07:42.444Z,25.05
2019-01-20T05:10:13.768Z,26.17
2019-01-20T05:12:42.244Z,26.55
2019-01-20T05:15:16.223Z,26.90
2019-01-20T05:17:44.708Z,21.33
2019-01-20T05:20:13.588Z,25.52
2019-01-20T05:22:42.100Z,24.57
2019-01-20T05:25:11.907Z,27.35
2019-01-20T05:27:40.424Z,24.12
2019-01-20T05:30:12.231Z,26.85
2019-01-20T05:32:40.698Z,26.87
2019-01-20T05:35:10.504Z,24.40
2019-01-20T05:37:38.960Z,26.60
2019-01-20T05:40:17.200Z,25.30
2019-01-20T05:42:46.666Z,26.00
2019-01-20T05:45:20.615Z,24.55
2019-01-20T05:47:49.397Z,25.92
2019-01-20T05:50:17.889Z,25.70
2019-01-20T05:52:46.339Z,25.57
2019-01-20T05:55:15.659Z,24.60
2019-01-20T05:57:44.623Z,24.70
2019-01-20T06:00:21.692Z,25.82
2019-01-20T06:02:50.139Z,27.45
2019-01-20T06:05:18.601Z,26.05
2019-01-20T06:07:47.068Z,26.60
2019-01-20T06:10:15.861Z,27.20
2019-01-20T06:12:44.315Z,27.02
2019-01-20T06:15:18.084Z,29.82
2019-01-20T06:17:46.553Z,27.32
2019-01-20T06:20:15.678Z,28.85
2019-01-20T06:22:44.299Z,29.48
2019-01-20T06:25:12.859Z,28.47
2019-01-20T06:27:41.311Z,28.75
2019-01-20T06:30:15.771Z,27.80
2019-01-20T06:32:44.217Z,25.57
2019-01-20T06:35:12.707Z,26.73
2019-01-20T06:37:41.154Z,27.70
2019-01-20T06:40:09.969Z,26.93
2019-01-20T06:42:38.409Z,26.17
2019-01-20T06:45:09.513Z,26.10
2019-01-20T06:47:37.965Z,25.32
2019-01-20T06:50:15.047Z,25.40
2019-01-20T06:52:43.519Z,27.35
2019-01-20T06:55:13.095Z,27.93
2019-01-20T06:57:41.730Z,27.32
2019-01-20T07:00:18.383Z,26.62
2019-01-20T07:02:46.863Z,25.90
2019-01-20T07:05:15.854Z,26.70
2019-01-20T07:07:44.594Z,28.70
2019-01-20T07:10:15.085Z,27.32
2019-01-20T07:12:43.715Z,28.32
2019-01-20T07:15:17.155Z,29.57
2019-01-20T07:17:45.692Z,29.05
2019-01-20T07:20:15.072Z,26.52
2019-01-20T07:22:43.717Z,26.95
2019-01-20T07:25:12.318Z,28.00
2019-01-20T07:27:40.837Z,29.18
2019-01-20T07:30:17.570Z,26.97
2019-01-20T07:32:46.065Z,29.40
2019-01-20T07:35:14.843Z,27.22
2019-01-20T07:37:43.390Z,26.77
2019-01-20T07:40:14.707Z,29.50
2019-01-20T07:42:43.098Z,29.23
2019-01-20T07:45:13.374Z,25.48
2019-01-20T07:47:41.827Z,30.82
2019-01-20T07:50:16.304Z,28.50
2019-01-20T07:52:44.753Z,28.80
2019-01-20T07:55:13.204Z,27.73
2019-01-20T07:57:41.673Z,29.63
2019-01-20T08:00:21.374Z,25.72
2019-01-20T08:02:49.841Z,25.30
2019-01-20T08:05:18.893Z,27.87
2019-01-20T08:07:47.356Z,27.87
2019-01-20T08:10:23.867Z,26.05
2019-01-20T08:12:52.412Z,26.10
2019-01-20T08:15:20.865Z,27.10
2019-01-20T08:17:49.322Z,27.67
2019-01-20T08:20:20.381Z,29.32
2019-01-20T08:22:48.847Z,27.35
2019-01-20T08:25:18.834Z,28.10
2019-01-20T08:27:47.288Z,26.45
2019-01-20T08:30:21.061Z,29.65
2019-01-20T08:32:49.554Z,30.30
2019-01-20T08:35:18.649Z,29.65
2019-01-20T08:37:47.136Z,29.32
2019-01-20T08:40:18.652Z,28.20
2019-01-20T08:42:47.095Z,30.48
2019-01-20T08:45:27.567Z,30.72
2019-01-20T08:47:58.850Z,31.25
2019-01-20T08:50:27.327Z,31.25
2019-01-20T08:52:55.776Z,30.88
2019-01-20T08:55:24.256Z,31.50
2019-01-20T08:57:52.690Z,32.45
2019-01-20T09:00:21.154Z,30.92
2019-01-20T09:02:49.600Z,31.30
2019-01-20T09:05:18.070Z,33.70
2019-01-20T09:07:46.561Z,31.68
2019-01-20T09:10:25.178Z,30.23
2019-01-20T09:12:54.194Z,31.17
2019-01-20T09:15:22.731Z,30.17
2019-01-20T09:17:51.177Z,31.10
2019-01-20T09:20:19.647Z,33.38
2019-01-20T09:22:48.102Z,31.52
2019-01-20T09:25:16.749Z,32.28
2019-01-20T09:27:45.182Z,33.15
2019-01-20T09:30:16.937Z,32.23
2019-01-20T09:32:45.401Z,32.48
2019-01-20T09:35:14.230Z,32.60
2019-01-20T09:37:42.691Z,33.90
2019-01-20T09:40:13.910Z,33.20
2019-01-20T09:42:42.377Z,32.20
2019-01-20T09:45:16.080Z,35.78
2019-01-20T09:47:44.541Z,32.55
2019-01-20T09:50:13.163Z,32.73
2019-01-20T09:52:41.613Z,34.18
2019-01-20T09:55:12.063Z,32.65
2019-01-20T09:57:40.537Z,34.48
2019-01-20T10:00:17.419Z,35.40
2019-01-20T10:02:45.937Z,32.08
2019-01-20T10:05:14.371Z,33.18
2019-01-20T10:07:42.861Z,34.03
2019-01-20T10:10:16.622Z,32.90
2019-01-20T10:12:46.737Z,33.05
2019-01-20T10:15:24.467Z,33.80
2019-01-20T10:17:52.886Z,34.95
2019-01-20T10:20:24.049Z,34.60
2019-01-20T10:22:52.553Z,34.83
2019-01-20T10:25:20.993Z,33.78
2019-01-20T10:27:49.481Z,33.70
2019-01-20T10:30:26.715Z,31.75
2019-01-20T10:32:55.207Z,34.58
2019-01-20T10:35:25.375Z,32.15
2019-01-20T10:37:55.774Z,34.05
2019-01-20T10:40:24.266Z,48.15
2019-01-20T10:42:52.737Z,32.80
2019-01-20T10:45:21.200Z,32.70
2019-01-20T10:47:49.675Z,33.33
2019-01-20T10:50:18.982Z,34.15
2019-01-20T10:52:47.609Z,31.95
2019-01-20T10:55:16.068Z,32.90
2019-01-20T10:57:44.553Z,31.25
2019-01-20T11:00:16.444Z,29.37
2019-01-20T11:02:44.908Z,32.45
2019-01-20T11:05:13.701Z,30.15
2019-01-20T11:07:42.171Z,32.13
2019-01-20T11:10:11.903Z,29.32
2019-01-20T11:12:41.015Z,29.57
2019-01-20T11:15:15.244Z,29.60
2019-01-20T11:17:43.710Z,31.05
2019-01-20T11:20:17.399Z,28.83
2019-01-20T11:22:45.935Z,27.77
2019-01-20T11:25:17.571Z,32.73
2019-01-20T11:27:46.060Z,31.80
2019-01-20T11:30:14.954Z,28.73
2019-01-20T11:32:43.591Z,28.42
2019-01-20T11:35:15.086Z,30.32
2019-01-20T11:37:43.656Z,28.17
2019-01-20T11:40:13.868Z,27.55
2019-01-20T11:42:42.401Z,27.73
2019-01-20T11:45:25.450Z,29.12
2019-01-20T11:47:53.978Z,29.02
2019-01-20T11:50:22.468Z,29.65
2019-01-20T11:52:50.932Z,28.05
2019-01-20T11:55:21.647Z,27.73
2019-01-20T11:57:50.170Z,27.52
2019-01-20T12:00:29.962Z,26.68
2019-01-20T12:02:58.424Z,26.37
2019-01-20T12:05:26.965Z,26.05
2019-01-20T12:07:55.509Z,26.45
2019-01-20T12:10:24.050Z,27.73
2019-01-20T12:13:00.231Z,26.12
2019-01-20T12:18:51.965Z,26.55
2019-01-20T12:21:20.477Z,24.20
2019-01-20T12:23:48.920Z,24.45
2019-01-20T12:26:17.463Z,23.45
2019-01-20T12:28:45.950Z,23.57
2019-01-20T12:31:14.505Z,22.77
2019-01-20T12:33:42.989Z,22.75
2019-01-20T12:36:11.425Z,21.55
2019-01-20T12:38:39.931Z,21.42
2019-01-20T12:41:08.397Z,27.35
2019-01-20T12:43:36.877Z,20.88
2019-01-20T12:46:05.333Z,23.40
2019-01-20T12:48:33.820Z,20.68
2019-01-20T12:51:02.321Z,21.60
2019-01-20T12:53:30.779Z,20.60
2019-01-20T12:55:59.250Z,20.35
2019-01-20T12:58:27.813Z,19.75
2019-01-20T13:00:56.297Z,19.70
2019-01-20T13:03:24.755Z,20.05
2019-01-20T13:05:53.217Z,19.60
2019-01-20T13:08:21.671Z,20.75
2019-01-20T13:10:50.152Z,18.95
2019-01-20T13:13:18.704Z,20.30
2019-01-20T13:15:47.167Z,19.85
2019-01-20T13:18:15.613Z,18.82
2019-01-20T13:20:44.309Z,18.42
2019-01-20T13:23:12.767Z,18.17
2019-01-20T13:25:41.256Z,19.23
2019-01-20T13:28:09.713Z,20.05
2019-01-20T13:30:38.174Z,19.05
2019-01-20T13:33:06.633Z,17.15
2019-01-20T13:35:35.088Z,18.12
2019-01-20T13:38:06.573Z,19.27
2019-01-20T13:40:41.001Z,19.35
2019-01-20T13:43:09.451Z,20.25
2019-01-20T13:45:37.923Z,20.48
2019-01-20T13:48:06.461Z,20.25
2019-01-20T13:50:34.915Z,20.43
2019-01-20T13:53:03.383Z,22.17
2019-01-20T13:55:31.838Z,25.10
2019-01-20T13:58:00.319Z,23.73
2019-01-20T14:00:28.948Z,25.43
2019-01-20T14:02:57.416Z,25.70
2019-01-20T14:05:25.872Z,23.90
2019-01-20T14:07:54.347Z,27.20
2019-01-20T14:10:24.753Z,26.82
2019-01-20T14:12:53.432Z,23.07
2019-01-20T14:15:21.850Z,24.87
2019-01-20T14:17:50.311Z,24.02
2019-01-20T14:20:26.640Z,29.10
2019-01-20T14:22:55.204Z,24.63
2019-01-20T14:25:25.802Z,22.70
2019-01-20T14:27:54.311Z,20.60
2019-01-20T14:30:28.634Z,21.20
2019-01-20T14:32:57.173Z,22.25
2019-01-20T14:35:25.613Z,22.25
2019-01-20T14:37:55.964Z,22.42
2019-01-20T14:40:27.450Z,24.02
2019-01-20T14:42:55.962Z,24.02
2019-01-20T14:45:24.414Z,20.68
2019-01-20T14:47:53.159Z,23.70
2019-01-20T14:50:24.217Z,22.85
2019-01-20T14:52:52.755Z,21.85
2019-01-20T14:55:21.377Z,21.65
2019-01-20T14:57:49.868Z,21.70
2019-01-20T15:00:33.265Z,23.20
2019-01-20T15:03:01.837Z,23.20
2019-01-20T15:05:32.660Z,22.00
2019-01-20T15:08:01.476Z,22.52
2019-01-20T15:10:30.170Z,21.60
2019-01-20T15:12:58.648Z,24.27
2019-01-20T15:15:33.236Z,23.02
2019-01-20T15:18:01.717Z,22.87
2019-01-20T15:20:30.178Z,21.80
2019-01-20T15:22:58.703Z,21.50
2019-01-20T15:25:27.231Z,22.13
2019-01-20T15:27:58.477Z,23.27
2019-01-20T15:30:37.544Z,20.43
2019-01-20T15:33:13.476Z,21.73
2019-01-20T15:35:41.932Z,20.50
2019-01-20T15:38:10.457Z,19.12
2019-01-20T15:40:39.005Z,18.98
2019-01-20T15:43:07.509Z,19.70
2019-01-20T15:45:35.971Z,18.92
2019-01-20T15:48:04.981Z,18.20
2019-01-20T15:50:34.177Z,19.00
2019-01-20T15:53:02.695Z,18.20
2019-01-20T15:55:31.221Z,18.75
2019-01-20T15:57:59.714Z,18.40
2019-01-20T16:00:32.384Z,18.40
2019-01-20T16:03:00.912Z,18.95
2019-01-20T16:05:30.072Z,18.45
2019-01-20T16:07:58.741Z,18.15
2019-01-20T16:10:27.216Z,18.00
2019-01-20T16:12:55.871Z,18.42
2019-01-20T16:15:29.995Z,19.57
2019-01-20T16:17:58.467Z,19.30
2019-01-20T16:20:27.691Z,17.90
2019-01-20T16:22:56.257Z,19.82
2019-01-20T16:25:27.542Z,22.60
2019-01-20T16:27:56.063Z,19.42
2019-01-20T16:30:27.540Z,20.15
2019-01-20T16:32:56.257Z,20.17
2019-01-20T16:35:25.777Z,20.90
2019-01-20T16:37:56.728Z,19.32
2019-01-20T16:40:25.986Z,19.20
2019-01-20T16:42:54.587Z,20.25
2019-01-20T16:45:33.007Z,20.05
2019-01-20T16:47:59.423Z,17.70
2019-01-20T16:50:30.225Z,20.77
2019-01-20T16:52:58.695Z,19.48
2019-01-20T16:55:28.258Z,18.42
2019-01-20T16:57:56.806Z,18.50
2019-01-20T17:00:30.483Z,19.80
2019-01-20T17:02:58.960Z,16.65
2019-01-20T17:05:28.310Z,18.60
2019-01-20T17:07:58.468Z,17.57
2019-01-20T17:10:32.526Z,16.35
2019-01-20T17:13:01.015Z,17.20
2019-01-20T17:15:39.855Z,17.05
2019-01-20T17:18:08.496Z,16.82
2019-01-20T17:20:38.955Z,18.40
2019-01-20T17:23:07.711Z,15.85
2019-01-20T17:25:36.195Z,17.85
2019-01-20T17:28:05.617Z,16.20
2019-01-20T17:30:38.095Z,17.52
2019-01-20T17:33:08.807Z,18.20
2019-01-20T17:35:37.514Z,19.10
2019-01-20T17:38:07.370Z,17.60
2019-01-20T17:40:35.863Z,18.82
2019-01-20T17:43:06.174Z,17.65
2019-01-20T17:45:37.640Z,18.12
2019-01-20T17:48:06.195Z,17.87
2019-01-20T17:50:36.885Z,19.62
2019-01-20T17:53:06.821Z,17.85
2019-01-20T17:55:35.787Z,19.17
2019-01-20T17:58:04.913Z,21.70
2019-01-20T18:00:36.500Z,20.45
2019-01-20T18:03:06.370Z,19.85
2019-01-20T18:05:35.004Z,22.15
2019-01-20T18:08:03.743Z,21.90
2019-01-20T18:10:33.657Z,23.25
2019-01-20T18:13:02.221Z,23.25
2019-01-20T18:15:32.364Z,20.08
2019-01-20T18:18:00.862Z,21.10
2019-01-20T18:20:33.615Z,22.42
2019-01-20T18:23:02.259Z,22.77
2019-01-20T18:25:31.029Z,22.65
2019-01-20T18:27:59.601Z,22.07
2019-01-20T18:30:31.834Z,21.52
2019-01-20T18:33:00.375Z,22.35
2019-01-20T18:35:29.288Z,22.58
2019-01-20T18:37:57.939Z,22.95
2019-01-20T18:40:28.139Z,27.10
2019-01-20T18:42:56.785Z,21.02
2019-01-20T18:45:35.367Z,20.15
2019-01-20T18:48:05.438Z,19.40
2019-01-20T18:50:39.386Z,23.30
2019-01-20T18:53:07.970Z,22.25
2019-01-20T18:55:36.733Z,23.42
2019-01-20T18:58:06.064Z,22.80
2019-01-20T19:00:37.287Z,21.52
2019-01-20T19:03:05.770Z,24.00
2019-01-20T19:05:34.312Z,22.73
2019-01-20T19:08:02.761Z,24.40
2019-01-20T19:10:31.266Z,24.20
2019-01-20T19:12:59.762Z,20.12
2019-01-20T19:15:28.245Z,20.17
2019-01-20T19:17:56.742Z,23.02
2019-01-20T19:20:27.359Z,24.23
2019-01-20T19:22:59.475Z,22.17
2019-01-20T19:25:28.041Z,21.15
2019-01-20T19:27:56.705Z,21.65
2019-01-20T19:30:28.109Z,21.23
2019-01-20T19:32:56.671Z,22.20
2019-01-20T19:35:25.715Z,24.27
2019-01-20T19:37:54.228Z,25.80
2019-01-20T19:40:22.920Z,21.45
2019-01-20T19:42:51.450Z,24.75
2019-01-20T19:45:23.402Z,24.52
2019-01-20T19:47:51.988Z,24.02
2019-01-20T19:50:20.432Z,24.57
2019-01-20T19:52:49.110Z,25.05
2019-01-20T19:55:29.124Z,26.02
2019-01-20T19:57:57.874Z,23.30
2019-01-20T20:00:28.832Z,26.85
2019-01-20T20:02:57.358Z,23.15
2019-01-20T20:05:26.135Z,24.12
2019-01-20T20:07:55.748Z,24.87
2019-01-20T20:10:26.275Z,23.18
2019-01-20T20:12:56.589Z,22.93
2019-01-20T20:15:27.168Z,24.82
2019-01-20T20:17:58.144Z,25.45
2019-01-20T20:20:26.956Z,25.02
2019-01-20T20:22:55.590Z,24.80
2019-01-20T20:25:25.699Z,23.47
2019-01-20T20:27:55.796Z,22.67
2019-01-20T20:30:38.338Z,22.62
2019-01-20T20:33:07.066Z,20.82
2019-01-20T20:35:35.785Z,20.55
2019-01-20T20:38:04.378Z,20.30
2019-01-20T20:40:33.496Z,21.55
2019-01-20T20:43:02.010Z,24.12
2019-01-20T20:45:30.674Z,21.48
2019-01-20T20:47:59.170Z,22.95
2019-01-20T20:50:27.685Z,20.75
2019-01-20T20:52:56.210Z,18.60
2019-01-20T20:55:25.049Z,18.32
2019-01-20T20:57:53.527Z,20.75
2019-01-20T21:00:26.785Z,19.25
2019-01-20T21:02:55.238Z,18.00
2019-01-20T21:05:25.477Z,17.05
2019-01-20T21:07:54.045Z,16.55
2019-01-20T21:10:22.806Z,18.23
2019-01-20T21:12:51.772Z,18.82
2019-01-20T21:15:20.296Z,15.83
2019-01-20T21:17:50.854Z,18.05
2019-01-20T21:20:22.413Z,16.75
2019-01-20T21:22:51.163Z,20.15
2019-01-20T21:25:19.822Z,16.25
2019-01-20T21:27:49.494Z,18.40
2019-01-20T21:30:25.838Z,18.15
2019-01-20T21:32:54.326Z,19.20
2019-01-20T21:35:22.861Z,19.05
2019-01-20T21:37:51.342Z,18.10
2019-01-20T21:40:20.497Z,16.87
2019-01-20T21:42:48.980Z,17.55
2019-01-20T21:45:18.605Z,19.17
2019-01-20T21:47:47.483Z,17.40
2019-01-20T21:50:24.575Z,17.95
2019-01-20T21:52:53.150Z,19.05
2019-01-20T21:55:21.667Z,18.90
2019-01-20T21:57:50.133Z,17.48
2019-01-20T22:00:20.794Z,16.57
2019-01-20T22:02:49.280Z,18.87
2019-01-20T22:05:17.764Z,18.15
2019-01-20T22:07:46.268Z,16.90
2019-01-20T22:10:17.004Z,19.00
2019-01-20T22:12:45.512Z,19.92
2019-01-20T22:15:14.815Z,20.97
2019-01-20T22:17:44.811Z,22.42
2019-01-20T22:20:18.403Z,19.92
2019-01-20T22:22:46.864Z,20.17
2019-01-20T22:25:15.461Z,19.42
2019-01-20T22:27:44.108Z,17.80
2019-01-20T22:30:15.319Z,16.97
2019-01-20T22:32:43.790Z,18.37
2019-01-20T22:35:13.188Z,20.60
2019-01-20T22:37:41.832Z,17.90
2019-01-20T22:40:12.736Z,18.65
2019-01-20T22:42:41.239Z,18.95
2019-01-20T22:45:12.872Z,18.62
2019-01-20T22:47:41.360Z,19.67
2019-01-20T22:50:12.176Z,17.80
2019-01-20T22:52:40.754Z,18.82
2019-01-20T22:55:12.074Z,18.67
2019-01-20T22:57:40.637Z,16.67
2019-01-20T23:00:14.892Z,17.90
2019-01-20T23:02:43.375Z,16.37
2019-01-20T23:05:11.968Z,16.95
2019-01-20T23:07:40.386Z,18.12
2019-01-20T23:10:08.862Z,18.92
2019-01-20T23:12:37.347Z,17.30
2019-01-20T23:15:09.174Z,19.12
2019-01-20T23:17:37.672Z,19.00
2019-01-20T23:20:12.239Z,19.77
2019-01-20T23:22:40.693Z,18.95
2019-01-20T23:25:09.184Z,18.37
2019-01-20T23:27:37.699Z,17.00
2019-01-20T23:30:12.116Z,19.10
2019-01-20T23:32:40.657Z,19.02
2019-01-20T23:35:09.529Z,21.52
2019-01-20T23:37:48.557Z,18.60
2019-01-20T23:40:17.359Z,18.55
2019-01-20T23:42:45.792Z,19.90
2019-01-20T23:45:14.619Z,20.17
2019-01-20T23:47:43.099Z,18.65
2019-01-20T23:50:16.192Z,23.83
2019-01-20T23:52:44.708Z,18.55
2019-01-20T23:55:13.639Z,18.75
2019-01-20T23:57:42.091Z,18.40
